• Join FlightAware (Why Join?)
  • Login
  • US Flag 
06:48PM EDT


 

Airport Tracker/Info


-or-


 

Live Flight TrackerFlight Track Log ✈ SKW6345 ✈ 28-Apr-2013 ✈ KPSP - KSFO

Flight Track Log - Related Links

Times and Time Zones

All times are in EDT time to prevent confusion due to time zone crossing. See the SKW6345 flight status page for this flight to view local times or setup timezone preferences in your user account.

Time Position Orientation Groundspeed Altitude Reporting Facility
EDT Latitude Longitude Course Direction KTS MPH feet Rate Location/Type
11:52PM 33.8500 -116.5167 342° North 171 197 1,300  Level Southern California TRACON
11:53PM 33.8833 -116.5667 309° West 209 241 3,500 2,400 Climbing Southern California TRACON
11:54PM 33.9500 -116.5500 12° North 239 275 6,100 2,220 Climbing Southern California TRACON
11:55PM 34.0938 -116.5142 342° North  Level FlightAware Approximate
11:55PM 33.9564 -116.5225 74° East 231 266 7,100  Level Los Angeles Center
11:56PM 34.1966 -116.5566 338° Northwest  Level FlightAware Approximate
11:56PM 34.0294 -116.5017 13° North 233 268 9,900  Level Los Angeles Center
11:57PM 34.3020 -116.5937 351° North  Level FlightAware Approximate
11:57PM 34.0956 -116.5231 345° North 245 282 12,100  Level Los Angeles Center
11:58PM 34.4081 -116.6299 342° North  Level FlightAware Approximate
11:58PM 34.1808 -116.5522 344° North 289 333 13,600  Level Los Angeles Center
11:59PM 34.2614 -116.5981 335° Northwest 318 366 15,000 1,560 Climbing Los Angeles Center
12:00AM 34.2956 -116.7056 291° West 342 394 16,800 1,680 Climbing Los Angeles Center
12:01AM 34.3231 -116.8167 287° West 343 395 18,500 1,560 Climbing Los Angeles Center
12:02AM 34.3508 -116.9311 286° West 351 404 20,000 1,440 Climbing Los Angeles Center
12:03AM 34.3800 -117.0456 287° West 354 407 21,500 1,260 Climbing Los Angeles Center
12:04AM 34.4089 -117.1619 287° West 358 412 22,700 1,200 Climbing Los Angeles Center
12:05AM 34.4450 -117.3039 287° West 365 420 24,100 1,200 Climbing Los Angeles Center
12:06AM 34.4739 -117.4253 286° West 373 429 25,200 900 Climbing Los Angeles Center
12:07AM 34.5047 -117.5489 287° West 379 436 26,000 360 Climbing Los Angeles Center
12:08AM 34.5356 -117.6758 286° West 388 447 26,000  Level Los Angeles Center
12:09AM 34.5672 -117.8053 287° West 398 458 26,000  Level Los Angeles Center
12:10AM 34.5978 -117.9328 286° West 395 455 26,000  Level Los Angeles Center
12:11AM 34.6300 -118.0611 287° West 395 455 26,000  Level Los Angeles Center
12:12AM 34.6872 -118.1717 302° West 386 444 26,000  Level Los Angeles Center
12:13AM 34.7478 -118.2797 304° West 383 441 26,000  Level Los Angeles Center
12:14AM 34.8075 -118.3906 303° West 391 450 26,000  Level Los Angeles Center
12:15AM 34.8761 -118.5175 303° West 386 444 26,000  Level Los Angeles Center
12:16AM 34.9325 -118.6167 305° West 384 442 26,000  Level Los Angeles Center
12:18AM 34.9817 -118.7353 297° West 390 449 26,000  Level Los Angeles Center
12:19AM 35.0436 -118.8742 299° West 387 445 26,000  Level Los Angeles Center
12:20AM 35.0933 -118.9892 298° West 383 441 26,000  Level Los Angeles Center
12:21AM 35.1444 -119.1056 298° West 388 447 26,000  Level Los Angeles Center
12:22AM 35.1978 -119.2214 299° West 391 450 26,000  Level Los Angeles Center
12:23AM 35.2472 -119.3372 298° West 388 447 26,000  Level Los Angeles Center
12:24AM 35.3094 -119.4772 299° West 390 449 26,000  Level Los Angeles Center
12:25AM 35.3611 -119.5931 299° West 390 449 26,000  Level Los Angeles Center
12:26AM 35.4219 -119.7333 298° West 390 449 26,000  Level Los Angeles Center
12:27AM 35.4711 -119.8500 297° West 387 445 26,000  Level Los Angeles Center
12:28AM 35.5222 -119.9667 298° West 390 449 26,000  Level Los Angeles Center
12:29AM 35.5725 -120.0844 298° West 392 451 26,000  Level Los Angeles Center
12:30AM 35.6325 -120.2242 298° West 395 455 26,000  Level Oakland Center
12:31AM 35.6825 -120.3414 298° West 394 453 26,000  Level Oakland Center
12:32AM 35.7292 -120.4608 296° West 391 450 26,000  Level Oakland Center
12:33AM 35.7736 -120.5747 296° West 372 428 26,000  Level Oakland Center
12:34AM 35.8244 -120.7044 296° West 354 407 26,000  Level Oakland Center
12:35AM 35.8603 -120.8006 295° West 317 365 26,000  Level Oakland Center
12:36AM 35.9014 -120.8933 299° West 313 360 26,000  Level Oakland Center
12:37AM 35.9622 -120.9650 316° Northwest 299 344 26,000  Level Oakland Center
12:38AM 36.0228 -121.0419 314° West 311 358 26,000  Level Oakland Center
12:39AM 36.0911 -121.1261 315° West 342 394 26,000 -300 Level Oakland Center
12:40AM 36.1639 -121.2197 314° West 375 432 25,400 -1,140 Descending Oakland Center
12:41AM 36.2347 -121.3078 315° West 363 418 23,700 -1,380 Descending Oakland Center
12:42AM 36.3025 -121.3933 315° West 353 406 22,700 -1,020 Descending Oakland Center
12:43AM 36.3694 -121.4817 313° West 352 405 21,700 -1,020 Descending Oakland Center
12:44AM 36.4367 -121.5669 314° West 345 397 20,700 -840 Descending Oakland Center
12:45AM 36.5031 -121.6522 314° West 343 395 20,000 -360 Descending Oakland Center
12:46AM 36.5686 -121.7367 314° West 340 391 20,000  Level Oakland Center
12:47AM 36.6425 -121.8356 313° West 341 392 20,000  Level Oakland Center
12:48AM 36.7000 -121.9000 318° Northwest 337 388 20,000  Level Northern Cal TRACON
12:49AM 36.7667 -121.9667 321° Northwest 337 388 20,000 -1,080 Level Northern Cal TRACON
12:50AM 36.8667 -122.0000 345° North 329 379 17,900 -1,980 Descending Northern Cal TRACON
12:50AM 36.8750 -121.9983 North 328 377 17,500 -1,980 Descending Oakland Center
12:52AM 36.9606 -122.0186 349° North 314 361 15,400 -2,040 Descending Oakland Center
12:53AM 37.0425 -122.0406 348° North 304 350 13,400 -1,980 Descending Oakland Center
12:54AM 37.1225 -122.0625 348° North 297 342 11,400 -1,920 Descending Oakland Center
12:55AM 37.1833 -122.1111 328° Northwest 288 331 9,500 -1,380 Descending Oakland Center
12:56AM 37.1961 -122.1994 280° West 265 305 8,700 -1,200 Descending Oakland Center
12:57AM 37.2206 -122.2772 292° West 249 287 7,200 -1,380 Descending Oakland Center
12:58AM 37.2747 -122.3058 337° Northwest 227 261 6,000 -600 Descending Oakland Center
12:59AM 37.3103 -122.2181 63° Northeast 248 285 6,000 -240 Level Oakland Center
01:00AM 37.3500 -122.1658 46° Northeast 230 265 5,600 -780 Descending Oakland Center
01:01AM 37.4100 -122.1539 North 221 254 4,500 -1,080 Descending Oakland Center
01:02AM 37.4686 -122.1389 11° North 218 251 3,500 -780 Descending Oakland Center
01:03AM 37.5231 -122.1706 335° Northwest 213 245 3,000 -540 Descending Oakland Center
01:04AM 37.5531 -122.2208 307° West 191 220 2,500 -660 Descending Oakland Center
01:05AM 37.5717 -122.2664 297° West 166 191 1,700 -780 Descending Oakland Center
01:06AM 37.5889 -122.3081 298° West 148 170 1,000 -720 Descending Oakland Center
01:07AM 37.6064 -122.3486 299° West 138 159 300 -720 Descending Oakland Center